createdAt,value
2023-05-05T00:01:08.734Z,62.46
2023-05-05T00:03:35.744Z,61.52
2023-05-05T00:06:02.845Z,61.29
2023-05-05T00:08:29.656Z,61.28
2023-05-05T00:10:57.375Z,61.63
2023-05-05T00:13:24.248Z,62.00
2023-05-05T00:15:53.420Z,61.69
2023-05-05T00:18:21.012Z,61.99
2023-05-05T00:20:48.133Z,62.11
2023-05-05T00:23:16.013Z,61.62
2023-05-05T00:25:42.590Z,61.64
2023-05-05T00:28:09.094Z,62.18
2023-05-05T00:30:37.290Z,63.33
2023-05-05T00:33:04.016Z,63.75
2023-05-05T00:35:30.758Z,65.74
2023-05-05T00:37:57.383Z,67.35
2023-05-05T00:40:25.038Z,67.51
2023-05-05T00:42:52.112Z,67.44
2023-05-05T00:45:19.802Z,65.85
2023-05-05T00:47:48.536Z,66.26
2023-05-05T00:50:22.914Z,65.92
2023-05-05T00:52:50.524Z,65.95
2023-05-05T00:55:17.791Z,66.57
2023-05-05T00:57:45.377Z,65.77
2023-05-05T01:00:12.660Z,65.96
2023-05-05T01:02:39.876Z,65.95
2023-05-05T01:05:08.575Z,67.69
2023-05-05T01:08:04.585Z,66.83
2023-05-05T01:10:31.160Z,66.55
2023-05-05T01:13:20.544Z,66.19
2023-05-05T01:15:53.357Z,66.75
2023-05-05T01:18:35.882Z,66.15
2023-05-05T01:21:14.557Z,67.54
2023-05-05T01:23:46.988Z,67.45
2023-05-05T01:26:31.514Z,67.05
2023-05-05T01:29:15.012Z,67.59
2023-05-05T01:31:51.767Z,69.40
2023-05-05T01:34:27.888Z,70.40
2023-05-05T01:37:07.438Z,70.26
2023-05-05T01:39:35.900Z,69.57
2023-05-05T01:42:08.099Z,68.87
2023-05-05T01:44:36.818Z,69.14
2023-05-05T01:47:04.974Z,68.40
2023-05-05T01:49:33.414Z,68.76
2023-05-05T01:52:03.675Z,68.63
2023-05-05T01:54:34.168Z,68.56
2023-05-05T01:57:04.796Z,68.51
2023-05-05T01:59:32.718Z,68.31
2023-05-05T02:02:02.004Z,68.20
2023-05-05T02:04:30.076Z,68.54
2023-05-05T02:07:00.016Z,69.18
2023-05-05T02:09:28.560Z,70.15
2023-05-05T02:11:57.934Z,70.24
2023-05-05T02:14:28.850Z,70.38
2023-05-05T02:16:56.869Z,69.68
2023-05-05T02:19:29.582Z,69.15
2023-05-05T02:21:56.983Z,69.10
2023-05-05T02:24:24.571Z,69.17
2023-05-05T02:26:53.221Z,69.12
2023-05-05T02:29:24.340Z,69.84
2023-05-05T02:31:55.294Z,69.00
2023-05-05T02:34:27.983Z,68.57
2023-05-05T02:37:03.282Z,68.87
2023-05-05T02:39:39.468Z,68.85
2023-05-05T02:42:15.203Z,67.55
2023-05-05T02:44:44.329Z,68.05
2023-05-05T02:47:11.784Z,68.50
2023-05-05T02:49:38.328Z,68.14
2023-05-05T02:52:05.017Z,68.18
2023-05-05T02:54:35.070Z,68.61
2023-05-05T02:57:06.200Z,68.07
2023-05-05T02:59:57.799Z,68.11
2023-05-05T03:02:54.365Z,67.80
2023-05-05T03:05:25.130Z,68.21
2023-05-05T03:08:16.840Z,68.00
2023-05-05T03:11:03.270Z,68.99
2023-05-05T03:13:32.354Z,69.50
2023-05-05T03:16:04.501Z,69.58
2023-05-05T03:18:31.666Z,70.74
2023-05-05T03:21:08.642Z,70.13
2023-05-05T03:23:37.828Z,70.57
2023-05-05T03:26:08.836Z,70.94
2023-05-05T03:28:39.884Z,71.08
2023-05-05T03:31:14.649Z,72.20
2023-05-05T03:33:41.364Z,72.11
2023-05-05T03:36:08.081Z,72.48
2023-05-05T03:38:34.909Z,72.68
2023-05-05T03:41:03.447Z,72.44
2023-05-05T03:43:31.026Z,71.65
2023-05-05T03:45:57.949Z,71.47
2023-05-05T03:48:24.988Z,70.90
2023-05-05T03:50:52.770Z,71.27
2023-05-05T03:53:21.036Z,71.65
2023-05-05T03:55:48.746Z,71.71
2023-05-05T03:58:15.242Z,71.91
2023-05-05T04:00:42.239Z,72.88
2023-05-05T04:03:10.887Z,73.84
2023-05-05T04:05:37.881Z,73.13
2023-05-05T04:08:04.684Z,73.66
2023-05-05T04:10:31.553Z,73.33
2023-05-05T04:12:58.232Z,73.27
2023-05-05T04:15:24.840Z,72.69
2023-05-05T04:17:51.400Z,72.54
2023-05-05T04:20:18.910Z,72.27
2023-05-05T04:22:45.967Z,71.91
2023-05-05T04:25:12.751Z,71.74
2023-05-05T04:27:39.264Z,72.59
2023-05-05T04:30:07.413Z,72.04
2023-05-05T04:32:36.533Z,71.80
2023-05-05T04:35:04.021Z,71.56
2023-05-05T04:37:30.591Z,71.40
2023-05-05T04:39:58.649Z,73.47
2023-05-05T04:42:25.821Z,74.75
2023-05-05T04:44:52.757Z,75.48
2023-05-05T04:47:19.328Z,75.97
2023-05-05T04:49:45.908Z,75.17
2023-05-05T04:52:13.509Z,74.77
2023-05-05T04:54:40.694Z,74.25
2023-05-05T04:57:07.532Z,74.79
2023-05-05T04:59:35.125Z,75.02
2023-05-05T05:02:01.770Z,74.95
2023-05-05T05:04:28.249Z,74.42
2023-05-05T05:06:56.235Z,73.21
2023-05-05T05:09:25.417Z,72.98
2023-05-05T05:11:52.773Z,73.04
2023-05-05T05:14:20.669Z,73.68
2023-05-05T05:16:51.045Z,74.83
2023-05-05T05:19:17.874Z,75.26
2023-05-05T05:21:44.458Z,75.41
2023-05-05T05:24:11.511Z,74.44
2023-05-05T05:26:38.768Z,74.47
2023-05-05T05:29:06.128Z,72.93
2023-05-05T05:31:34.262Z,71.29
2023-05-05T05:34:00.994Z,70.23
2023-05-05T05:36:28.292Z,68.67
2023-05-05T05:38:54.746Z,68.04
2023-05-05T05:41:21.551Z,67.73
2023-05-05T05:43:48.205Z,66.38
2023-05-05T05:46:14.849Z,68.00
2023-05-05T05:48:42.525Z,67.42
2023-05-05T05:51:09.115Z,66.65
2023-05-05T05:53:35.729Z,65.32
2023-05-05T05:56:02.273Z,63.65
2023-05-05T05:58:28.936Z,62.37
2023-05-05T06:00:55.458Z,61.01
2023-05-05T06:03:22.058Z,60.41
2023-05-05T06:05:48.711Z,62.20
2023-05-05T06:08:15.664Z,63.12
2023-05-05T06:10:48.179Z,65.07
2023-05-05T06:13:18.025Z,66.46
2023-05-05T06:15:47.936Z,65.54
2023-05-05T06:18:15.285Z,64.69
2023-05-05T06:20:43.380Z,64.88
2023-05-05T06:23:11.216Z,65.38
2023-05-05T06:25:42.159Z,64.88
2023-05-05T06:28:08.723Z,63.73
2023-05-05T06:30:35.172Z,62.48
2023-05-05T06:33:01.642Z,61.62
2023-05-05T06:35:30.206Z,62.26
2023-05-05T06:37:56.664Z,62.44
2023-05-05T06:40:23.287Z,60.03
2023-05-05T06:42:49.920Z,57.70
2023-05-05T06:45:22.189Z,54.60
2023-05-05T06:47:49.159Z,52.97
2023-05-05T06:50:15.696Z,52.09
2023-05-05T06:52:42.474Z,51.26
2023-05-05T06:55:09.693Z,50.75
2023-05-05T06:57:36.193Z,52.59
2023-05-05T07:00:05.698Z,52.06
2023-05-05T07:02:33.567Z,51.66
2023-05-05T07:05:00.238Z,51.44
2023-05-05T07:07:26.884Z,52.44
2023-05-05T07:09:53.301Z,51.44
2023-05-05T07:12:19.864Z,52.08
2023-05-05T07:14:46.707Z,51.24
2023-05-05T07:17:13.234Z,51.66
2023-05-05T07:19:39.769Z,49.38
2023-05-05T07:22:06.276Z,48.32
2023-05-05T07:24:32.773Z,47.50
2023-05-05T07:26:59.297Z,47.38
2023-05-05T07:29:25.856Z,46.13
2023-05-05T07:31:52.410Z,45.76
2023-05-05T07:34:18.841Z,45.64
2023-05-05T07:36:45.447Z,45.71
2023-05-05T07:39:14.906Z,44.67
2023-05-05T07:41:42.376Z,42.82
2023-05-05T07:44:08.894Z,42.43
2023-05-05T07:46:35.396Z,41.92
2023-05-05T07:49:01.908Z,42.68
2023-05-05T07:51:28.351Z,42.00
2023-05-05T07:53:55.724Z,41.38
2023-05-05T07:56:22.145Z,41.70
2023-05-05T07:58:48.558Z,42.06
2023-05-05T08:01:15.010Z,42.35
2023-05-05T08:03:41.737Z,41.24
2023-05-05T08:06:14.406Z,42.11
2023-05-05T08:08:40.858Z,42.93
2023-05-05T08:11:07.934Z,40.41
2023-05-05T08:13:34.609Z,40.05
2023-05-05T08:16:01.212Z,39.56
2023-05-05T08:18:27.858Z,39.29
2023-05-05T08:20:54.719Z,39.52
2023-05-05T08:23:21.633Z,38.70
2023-05-05T08:25:48.104Z,38.32
2023-05-05T08:28:14.612Z,38.70
2023-05-05T08:30:41.316Z,38.66
2023-05-05T08:33:07.843Z,37.82
2023-05-05T08:35:34.373Z,38.29
2023-05-05T08:38:00.797Z,38.53
2023-05-05T08:40:32.096Z,39.38
2023-05-05T08:42:59.144Z,38.15
2023-05-05T08:45:27.451Z,37.25
2023-05-05T08:47:56.301Z,37.64
2023-05-05T08:50:26.859Z,36.15
2023-05-05T08:53:08.115Z,37.11
2023-05-05T08:55:35.840Z,37.16
2023-05-05T08:58:05.680Z,36.16
2023-05-05T09:00:33.450Z,35.87
2023-05-05T09:03:01.352Z,34.52
2023-05-05T09:05:28.013Z,34.25
2023-05-05T09:07:54.471Z,34.81
2023-05-05T09:10:21.525Z,34.52
2023-05-05T09:12:50.372Z,34.65
2023-05-05T09:15:16.840Z,34.67
2023-05-05T09:17:44.124Z,34.52
2023-05-05T09:20:12.781Z,34.88
2023-05-05T09:22:43.070Z,35.29
2023-05-05T09:25:11.957Z,34.70
2023-05-05T09:27:43.673Z,34.26
2023-05-05T09:30:12.359Z,34.41
2023-05-05T09:32:52.980Z,34.72
2023-05-05T09:35:20.423Z,33.61
2023-05-05T09:37:47.092Z,33.92
2023-05-05T09:40:15.295Z,31.30
2023-05-05T09:42:41.868Z,30.41
2023-05-05T09:45:25.975Z,30.41
2023-05-05T09:47:58.799Z,31.56
2023-05-05T09:50:30.095Z,31.32
2023-05-05T09:53:01.381Z,33.43
2023-05-05T09:55:28.822Z,34.57
2023-05-05T09:57:55.696Z,33.94
2023-05-05T10:00:22.674Z,33.46
2023-05-05T10:02:49.202Z,32.41
2023-05-05T10:05:18.087Z,35.04
2023-05-05T10:07:46.251Z,35.53
2023-05-05T10:10:15.469Z,35.64
2023-05-05T10:12:42.451Z,35.33
2023-05-05T10:15:10.616Z,34.50
2023-05-05T10:18:02.818Z,36.12
2023-05-05T10:20:33.352Z,35.89
2023-05-05T10:23:05.485Z,34.92
2023-05-05T10:25:39.052Z,33.30
2023-05-05T10:28:06.820Z,32.40
2023-05-05T10:30:39.474Z,32.66
2023-05-05T10:33:31.078Z,32.63
2023-05-05T10:36:01.656Z,32.70
2023-05-05T10:38:30.895Z,34.59
2023-05-05T10:41:00.007Z,33.93
2023-05-05T10:43:28.272Z,34.00
2023-05-05T10:45:55.676Z,31.23
2023-05-05T10:48:32.239Z,32.06
2023-05-05T10:51:39.398Z,32.46
2023-05-05T10:54:30.153Z,32.38
2023-05-05T10:57:01.219Z,32.95
2023-05-05T10:59:36.911Z,32.48
2023-05-05T11:02:29.462Z,32.51
2023-05-05T11:05:31.867Z,33.67
2023-05-05T11:08:25.021Z,32.26
2023-05-05T11:10:51.456Z,32.25
2023-05-05T11:13:19.479Z,33.83
2023-05-05T11:15:46.082Z,33.35
2023-05-05T11:18:30.547Z,30.52
2023-05-05T11:20:59.980Z,30.06
2023-05-05T11:23:26.831Z,30.68
2023-05-05T11:25:54.117Z,30.92
2023-05-05T11:28:24.912Z,31.06
2023-05-05T11:31:17.918Z,31.03
2023-05-05T11:33:45.092Z,31.83
2023-05-05T11:36:14.364Z,31.61
2023-05-05T11:39:17.817Z,31.20
2023-05-05T11:42:32.146Z,33.00
2023-05-05T11:44:59.342Z,31.18
2023-05-05T11:47:27.589Z,32.85
2023-05-05T11:49:55.503Z,35.64
2023-05-05T11:52:24.292Z,34.75
2023-05-05T11:54:51.286Z,33.52
2023-05-05T11:57:28.036Z,34.90
2023-05-05T11:59:56.150Z,34.26
2023-05-05T12:02:24.053Z,35.22
2023-05-05T12:04:50.931Z,35.64
2023-05-05T12:07:19.357Z,35.51
2023-05-05T12:09:46.973Z,35.25
2023-05-05T12:12:14.606Z,35.56
2023-05-05T12:14:52.442Z,36.01
2023-05-05T12:17:20.532Z,35.91
2023-05-05T12:19:54.184Z,35.32
2023-05-05T12:22:28.052Z,36.24
2023-05-05T12:24:58.959Z,34.89
2023-05-05T12:27:27.477Z,33.46
2023-05-05T12:29:55.462Z,33.23
2023-05-05T12:32:24.504Z,35.81
2023-05-05T12:34:57.309Z,35.81
2023-05-05T12:37:26.128Z,35.17
2023-05-05T12:39:54.735Z,33.33
2023-05-05T12:42:22.061Z,34.78
2023-05-05T12:44:49.120Z,34.85
2023-05-05T12:47:28.708Z,35.43
2023-05-05T12:49:55.279Z,35.62
2023-05-05T12:52:21.823Z,35.54
2023-05-05T12:54:59.358Z,34.08
2023-05-05T12:57:26.023Z,33.77
2023-05-05T12:59:53.356Z,37.07
2023-05-05T13:02:21.128Z,35.31
2023-05-05T13:04:52.956Z,36.46
2023-05-05T13:07:21.157Z,37.63
2023-05-05T13:09:51.283Z,37.59
2023-05-05T13:12:18.700Z,36.76
2023-05-05T13:14:46.557Z,36.89
2023-05-05T13:17:13.825Z,37.29
2023-05-05T13:19:46.123Z,35.53
2023-05-05T13:22:13.317Z,37.49
2023-05-05T13:24:50.764Z,37.95
2023-05-05T13:27:19.637Z,37.13
2023-05-05T13:29:46.581Z,37.67
2023-05-05T13:32:13.032Z,37.47
2023-05-05T13:34:39.674Z,37.86
2023-05-05T13:37:06.390Z,38.70
2023-05-05T13:39:33.162Z,37.93
2023-05-05T13:41:59.682Z,37.42
2023-05-05T13:44:26.096Z,38.05
2023-05-05T13:46:52.577Z,38.51
2023-05-05T13:49:20.066Z,37.71
2023-05-05T13:51:47.034Z,38.34
2023-05-05T13:54:13.868Z,38.09
2023-05-05T13:56:40.461Z,38.73
2023-05-05T13:59:06.958Z,38.38
2023-05-05T14:01:33.619Z,38.13
2023-05-05T14:04:01.516Z,38.17
2023-05-05T14:06:30.444Z,38.12
2023-05-05T14:08:56.839Z,38.89
2023-05-05T14:11:23.290Z,38.53
2023-05-05T14:13:49.791Z,39.22
2023-05-05T14:16:16.684Z,38.91
2023-05-05T14:18:43.184Z,39.01
2023-05-05T14:21:09.821Z,39.12
2023-05-05T14:23:36.257Z,39.24
2023-05-05T14:26:02.755Z,39.96
2023-05-05T14:28:29.220Z,41.70
2023-05-05T14:30:56.013Z,41.93
2023-05-05T14:33:22.524Z,40.98
2023-05-05T14:35:49.127Z,41.91
2023-05-05T14:38:15.652Z,43.29
2023-05-05T14:40:42.311Z,45.07
2023-05-05T14:43:08.762Z,45.45
2023-05-05T14:45:35.292Z,44.99
2023-05-05T14:48:02.348Z,45.39
2023-05-05T14:50:28.768Z,45.77
2023-05-05T14:52:55.174Z,46.19
2023-05-05T14:55:21.737Z,46.19
2023-05-05T14:57:48.116Z,47.42
2023-05-05T15:00:14.928Z,45.78
2023-05-05T15:02:41.518Z,46.19
2023-05-05T15:05:08.645Z,46.81
2023-05-05T15:07:35.294Z,47.13
2023-05-05T15:10:01.850Z,46.62
2023-05-05T15:12:28.286Z,46.71
2023-05-05T15:14:55.404Z,47.27
2023-05-05T15:17:22.122Z,48.24
2023-05-05T15:19:48.596Z,50.71
2023-05-05T15:22:15.048Z,51.77
2023-05-05T15:24:41.476Z,51.90
2023-05-05T15:27:08.171Z,52.75
2023-05-05T15:29:34.629Z,53.93
2023-05-05T15:32:01.397Z,54.56
2023-05-05T15:34:27.910Z,55.09
2023-05-05T15:36:54.806Z,55.38
2023-05-05T15:39:21.411Z,55.75
2023-05-05T15:41:47.850Z,56.69
2023-05-05T15:44:14.348Z,57.61
2023-05-05T15:46:41.262Z,58.39
2023-05-05T15:49:07.823Z,59.47
2023-05-05T15:51:34.278Z,59.51
2023-05-05T15:54:00.821Z,60.32
2023-05-05T15:56:27.476Z,60.08
2023-05-05T15:58:54.291Z,60.45
2023-05-05T16:01:21.013Z,60.45
2023-05-05T16:03:47.504Z,60.58
2023-05-05T16:06:14.041Z,61.47
2023-05-05T16:08:40.794Z,62.72
2023-05-05T16:11:07.196Z,62.29
2023-05-05T16:13:33.656Z,62.54
2023-05-05T16:16:00.149Z,62.67
2023-05-05T16:18:26.637Z,62.66
2023-05-05T16:20:53.093Z,62.95
2023-05-05T16:23:19.486Z,63.95
2023-05-05T16:25:45.909Z,63.90
2023-05-05T16:28:12.438Z,63.01
2023-05-05T16:30:39.822Z,62.70
2023-05-05T16:33:06.772Z,62.70
2023-05-05T16:35:33.466Z,62.84
2023-05-05T16:37:59.902Z,63.10
2023-05-05T16:40:26.350Z,63.16
2023-05-05T16:42:52.866Z,63.50
2023-05-05T16:45:19.333Z,63.00
2023-05-05T16:47:45.827Z,63.57
2023-05-05T16:50:12.320Z,63.87
2023-05-05T16:52:38.884Z,63.85
2023-05-05T16:55:05.539Z,63.66
2023-05-05T16:57:31.937Z,63.91
2023-05-05T16:59:58.399Z,63.69
2023-05-05T17:02:24.956Z,63.35
2023-05-05T17:04:51.532Z,63.61
2023-05-05T17:07:18.034Z,62.87
2023-05-05T17:09:44.640Z,62.52
2023-05-05T17:12:11.160Z,62.01
2023-05-05T17:14:37.750Z,62.39
2023-05-05T17:17:04.331Z,62.60
2023-05-05T17:19:31.301Z,62.96
2023-05-05T17:21:57.735Z,63.41
2023-05-05T17:24:24.262Z,62.56
2023-05-05T17:26:50.823Z,62.17
2023-05-05T17:29:21.513Z,62.74
2023-05-05T17:31:48.085Z,62.80
2023-05-05T17:34:14.544Z,63.08
2023-05-05T17:36:41.102Z,62.74
2023-05-05T17:39:08.092Z,62.83
2023-05-05T17:41:34.543Z,62.95
2023-05-05T17:44:00.977Z,63.16
2023-05-05T17:46:27.921Z,63.10
2023-05-05T17:48:55.131Z,62.73
2023-05-05T17:51:21.629Z,62.75
2023-05-05T17:53:48.024Z,63.42
2023-05-05T17:56:14.421Z,63.69
2023-05-05T17:58:41.230Z,63.90
2023-05-05T18:01:07.762Z,63.95
2023-05-05T18:03:34.309Z,64.36
2023-05-05T18:06:02.205Z,63.87
2023-05-05T18:08:28.668Z,63.89
2023-05-05T18:10:55.061Z,64.28
2023-05-05T18:13:21.529Z,64.24
2023-05-05T18:15:48.034Z,64.37
2023-05-05T18:18:14.633Z,64.50
2023-05-05T18:20:41.213Z,64.36
2023-05-05T18:23:07.719Z,64.55
2023-05-05T18:25:34.101Z,64.61
2023-05-05T18:28:00.516Z,64.25
2023-05-05T18:30:27.513Z,64.43
2023-05-05T18:32:54.002Z,64.52
2023-05-05T18:35:21.373Z,64.13
2023-05-05T18:37:47.999Z,64.56
2023-05-05T18:40:14.503Z,64.77
2023-05-05T18:42:41.687Z,64.78
2023-05-05T18:45:10.546Z,64.77
2023-05-05T18:47:38.370Z,64.81
2023-05-05T18:50:06.123Z,64.58
2023-05-05T18:52:33.081Z,64.95
2023-05-05T18:54:59.725Z,64.77
2023-05-05T18:57:27.272Z,64.89
2023-05-05T18:59:53.715Z,64.26
2023-05-05T19:02:20.201Z,64.82
2023-05-05T19:04:46.761Z,64.32
2023-05-05T19:07:23.858Z,64.70
2023-05-05T19:09:58.024Z,64.82
2023-05-05T19:12:24.472Z,64.82
2023-05-05T19:14:50.898Z,64.90
2023-05-05T19:17:17.487Z,65.14
2023-05-05T19:19:44.023Z,65.05
2023-05-05T19:22:10.443Z,64.57
2023-05-05T19:24:36.978Z,65.08
2023-05-05T19:27:03.904Z,65.27
2023-05-05T19:29:33.358Z,65.82
2023-05-05T19:31:59.846Z,66.67
2023-05-05T19:34:26.323Z,67.26
2023-05-05T19:36:52.817Z,67.31
2023-05-05T19:39:19.243Z,67.14
2023-05-05T19:41:45.868Z,67.23
2023-05-05T19:44:12.360Z,66.66
2023-05-05T19:46:39.190Z,66.77
2023-05-05T19:49:06.125Z,66.75
2023-05-05T19:51:32.614Z,67.15
2023-05-05T19:53:59.415Z,66.72
2023-05-05T19:56:26.246Z,66.74
2023-05-05T19:58:57.518Z,65.94
2023-05-05T20:01:24.177Z,65.62
2023-05-05T20:03:52.407Z,65.70
2023-05-05T20:06:19.051Z,65.74
2023-05-05T20:08:45.545Z,66.13
2023-05-05T20:11:12.441Z,66.46
2023-05-05T20:13:39.050Z,68.01
2023-05-05T20:16:06.443Z,67.96
2023-05-05T20:18:33.049Z,67.80
2023-05-05T20:20:59.664Z,68.82
2023-05-05T20:23:26.612Z,69.19
2023-05-05T20:25:54.201Z,69.50
2023-05-05T20:28:20.784Z,69.50
2023-05-05T20:30:47.193Z,69.55
2023-05-05T20:33:13.630Z,70.42
2023-05-05T20:35:40.102Z,70.04
2023-05-05T20:38:06.546Z,69.62
2023-05-05T20:40:33.593Z,69.37
2023-05-05T20:43:00.194Z,69.38
2023-05-05T20:45:26.673Z,69.59
2023-05-05T20:47:53.310Z,70.68
2023-05-05T20:50:22.386Z,71.00
2023-05-05T20:52:49.391Z,71.15
2023-05-05T20:55:15.865Z,70.93
2023-05-05T20:57:42.300Z,70.72
2023-05-05T21:00:09.385Z,70.91
2023-05-05T21:02:37.340Z,70.82
2023-05-05T21:05:04.417Z,71.11
2023-05-05T21:07:34.234Z,70.98
2023-05-05T21:10:04.639Z,70.30
2023-05-05T21:12:31.194Z,70.01
2023-05-05T21:14:58.793Z,70.16
2023-05-05T21:17:29.235Z,70.37
2023-05-05T21:19:56.016Z,71.02
2023-05-05T21:22:22.846Z,70.66
2023-05-05T21:24:49.332Z,70.81
2023-05-05T21:27:15.936Z,70.59
2023-05-05T21:29:42.332Z,71.60
2023-05-05T21:32:10.583Z,71.61
2023-05-05T21:34:38.047Z,70.88
2023-05-05T21:37:05.534Z,71.29
2023-05-05T21:39:33.171Z,71.06
2023-05-05T21:42:00.580Z,73.28
2023-05-05T21:44:28.111Z,73.77
2023-05-05T21:46:55.056Z,74.57
2023-05-05T21:49:21.704Z,76.55
2023-05-05T21:51:48.149Z,75.83
2023-05-05T21:54:14.647Z,75.01
2023-05-05T21:56:41.125Z,75.92
2023-05-05T21:59:07.616Z,76.14
2023-05-05T22:01:34.174Z,77.48
2023-05-05T22:04:00.654Z,77.98
2023-05-05T22:06:27.210Z,76.59
2023-05-05T22:08:53.688Z,76.28
2023-05-05T22:11:20.194Z,75.55
2023-05-05T22:13:46.663Z,74.69
2023-05-05T22:16:16.409Z,74.84
2023-05-05T22:18:43.369Z,76.87
2023-05-05T22:21:10.109Z,77.21
2023-05-05T22:23:37.248Z,76.83
2023-05-05T22:26:04.774Z,78.62
2023-05-05T22:28:31.291Z,78.93
2023-05-05T22:30:57.756Z,79.37
2023-05-05T22:33:24.384Z,78.81
2023-05-05T22:35:51.938Z,78.32
2023-05-05T22:38:18.658Z,78.57
2023-05-05T22:40:45.407Z,78.09
2023-05-05T22:43:12.136Z,77.13
2023-05-05T22:45:38.642Z,79.17
2023-05-05T22:48:05.587Z,78.95
2023-05-05T22:50:32.264Z,76.78
2023-05-05T22:52:58.769Z,75.76
2023-05-05T22:55:25.276Z,75.43
2023-05-05T22:57:52.681Z,74.70
2023-05-05T23:00:19.601Z,74.50
2023-05-05T23:02:46.045Z,74.52
2023-05-05T23:05:12.775Z,76.18
2023-05-05T23:07:39.446Z,75.40
2023-05-05T23:10:06.359Z,75.80
2023-05-05T23:12:33.039Z,75.29
2023-05-05T23:14:59.500Z,76.34
2023-05-05T23:17:25.983Z,77.23
2023-05-05T23:19:52.482Z,77.83
2023-05-05T23:22:18.907Z,78.44
2023-05-05T23:24:45.281Z,80.04
2023-05-05T23:27:12.121Z,80.81
2023-05-05T23:29:38.684Z,78.44
2023-05-05T23:32:05.679Z,77.13
2023-05-05T23:34:32.231Z,77.92
2023-05-05T23:36:58.658Z,77.55
2023-05-05T23:39:25.086Z,78.20
2023-05-05T23:41:51.562Z,77.49
2023-05-05T23:44:17.948Z,77.24
2023-05-05T23:46:44.398Z,77.49
2023-05-05T23:49:10.885Z,76.52
2023-05-05T23:51:37.487Z,76.25
2023-05-05T23:54:04.143Z,76.25
2023-05-05T23:56:30.622Z,76.09
2023-05-05T23:58:57.101Z,77.71
